WEATHER DATA

TODAY
Time Temp. Dewp. Hum. Wind dir Wind speed Wind gust Bar. 1h Prec. 24h Prec.
00:06 2.7 0.9 88 234 3.1 5.6 1021.4 0.0000 0.0000
00:16 2.5 0.7 88 231 3.1 4.7 1021.4 0.0000 0.0000
00:26 2.4 0.6 88 231 2.8 4.4 1021.5 0.0000 0.0000
00:37 2.2 0.4 88 231 2.8 5 1021.5 0.0000 0.0000
00:46 2.1 0.3 88 229 3.1 4.7 1021.6 0.0000 0.0000
00:56 2.1 0.5 89 228 3.1 5 1021.6 0.0000 0.0000
01:07 2.1 0.5 89 229 3.1 5.6 1021.7 0.0000 0.0000
01:17 2.1 0.6 90 234 2.8 4.4 1021.6 0.0000 0.0000
01:27 2 0.4 89 230 3.3 5.8 1021.8 0.0000 0.0000
01:37 1.8 0.2 89 233 3.1 5 1021.9 0.0000 0.0000
01:47 1.8 0.3 90 232 2.8 4.4 1022 0.0000 0.0000
01:57 2 0.5 90 232 3.3 5.6 1022 0.0000 0.0000
02:07 2.1 0.8 91 234 3.1 5 1022 0.0000 0.0000
02:18 2.2 0.9 91 235 3.1 4.7 1022 0.0000 0.0000
02:27 2.3 1 91 238 2.8 5.6 1021.9 0.0000 0.0000
02:37 2.4 1.1 91 234 3.1 5 1021.9 0.0000 0.0000
02:47 2.4 1.1 91 233 3.1 5 1021.9 0.0000 0.0000
02:58 2.5 1.2 91 240 3.1 5 1021.8 0.0000 0.0000
03:08 2.5 1.2 91 235 3.1 5 1021.9 0.1010 0.1000
03:17 2.5 1.2 91 241 2.8 5 1021.9 0.1010 0.1000
03:28 2.5 1.2 91 235 3.1 4.7 1021.8 0.1010 0.1000
03:38 2.5 1.2 91 235 3.1 5 1021.8 0.1010 0.1000
03:48 2.7 1.4 91 236 2.8 5 1021.8 0.1010 0.1000
03:58 2.8 1.6 92 239 2.8 5.6 1021.9 0.1010 0.1000
04:08 2.9 1.7 92 240 2.8 5 1022 0.0000 0.1000
04:18 3 1.8 92 234 3.1 5.6 1022.2 0.0000 0.1000
04:28 3.1 1.9 92 235 2.8 4.4 1022.3 0.0000 0.1000
04:39 3.3 2.1 92 238 2.5 4.2 1022.4 0.0000 0.1000
04:49 3.4 2.2 92 235 2.5 4.4 1022.5 0.0000 0.1000
04:58 3.5 2.3 92 235 2.5 4.4 1022.5 0.0000 0.1000
05:08 3.6 2.4 92 232 2.8 4.7 1022.5 0.0000 0.1000
05:19 3.6 2.4 92 232 3.1 5.6 1022.5 0.0000 0.1000
05:29 3.6 2.4 92 237 2.5 4.7 1022.7 0.0000 0.1000
05:39 3.6 2.4 92 233 2.8 4.4 1022.9 0.0000 0.1000
05:49 3.6 2.4 92 238 2.5 4.4 1022.8 0.0000 0.1000
05:59 3.6 2.4 92 237 2.8 4.7 1023.1 0.0000 0.1000
06:09 3.6 2.4 92 234 3.1 5 1023.2 0.0000 0.1000
06:19 3.6 2.4 92 233 2.5 5.8 1023.4 0.0000 0.1000
06:30 3.5 2.3 92 234 2.5 3.6 1023.7 0.0000 0.1000
06:39 3.5 2.3 92 234 2.5 4.7 1023.9 0.0000 0.1000
06:49 3.3 2.1 92 234 2.5 4.4 1024.1 0.0000 0.1000
07:00 3.2 2 92 234 2.8 4.2 1024.3 0.0000 0.1000
07:10 3.1 1.9 92 230 3.1 5.6 1024.4 0.0000 0.1000
07:20 3 1.8 92 235 3.1 4.4 1024.5 0.0000 0.1000
07:29 3 1.8 92 232 2.8 5.6 1024.6 0.0000 0.1000
07:40 3 1.8 92 234 2.8 5 1024.6 0.0000 0.1000
07:50 2.9 1.7 92 235 2.8 4.7 1024.8 0.0000 0.1000
08:00 2.9 1.7 92 232 2.8 5.6 1025 0.0000 0.1000
08:10 2.8 1.6 92 235 2.8 4.2 1025.1 0.0000 0.1000
08:21 2.8 1.6 92 236 2.8 4.4 1025.2 0.0000 0.1000
08:30 2.8 1.6 92 232 3.1 5 1025.3 0.0000 0.1000
08:40 2.8 1.6 92 232 3.1 4.7 1025.4 0.1010 0.2000
08:51 2.8 1.8 93 233 3.3 5 1025.4 0.1010 0.2000
09:01 2.8 1.8 93 233 3.1 5 1025.4 0.1010 0.2000
09:11 2.9 1.9 93 233 3.1 5.8 1025.3 0.1010 0.2000
09:21 3 2 93 235 2.8 4.2 1025.3 0.1010 0.2000
09:31 3.2 2.2 93 233 3.1 4.7 1025.2 0.1010 0.2000
09:41 3.3 2.3 93 237 2.8 5.6 1025.3 0.0000 0.2000
09:51 3.5 2.5 93 237 2.5 4.2 1025.2 0.0000 0.2000
10:02 3.7 2.7 93 249 1.9 4.4 1025.1 0.0000 0.2000
10:11 4 3.1 94 244 2.5 4.4 1025.2 0.0000 0.2000
10:21 4.2 3.3 94 245 1.9 3.3 1025.1 0.0000 0.2000
10:31 4.4 3.4 93 238 2.8 4.2 1025 0.0000 0.2000
10:42 4.5 3.5 93 237 2.8 4.4 1024.7 0.0000 0.2000
10:52 4.7 3.7 93 240 2.5 4.4 1024.7 0.0000 0.2000
11:01 4.9 3.9 93 251 1.7 3.3 1024.5 0.0000 0.2000
11:12 5.4 4.5 94 270 1.7 3.6 1024.2 0.0000 0.2000
11:22 6 5.1 94 263 1.9 5 1024 0.0000 0.2000
11:32 6.5 5.6 94 255 2.8 6.4 1023.9 0.0000 0.2000
11:42 7.2 6.3 94 260 2.8 7.5 1023.7 0.0000 0.2000
11:52 7.8 6.9 94 256 2.8 6.7 1023.4 0.0000 0.2000
12:02 8.4 7.3 93 250 4.2 7.2 1023.2 0.0000 0.2000
12:12 9.1 8 93 253 4.2 8.9 1023 0.0000 0.2000
12:23 9.8 8.4 91 248 4.4 8.1 1022.8 0.0000 0.2000
12:33 10.3 8.7 90 252 3.6 9.2 1022.4 0.0000 0.2000
12:42 10.8 9.2 90 242 5 9.4 1022.2 0.0000 0.2000
12:52 11.4 9.7 89 247 4.4 7.8 1021.9 0.0000 0.2000
13:03 12 9.9 87 244 4.2 7.8 1021.8 0.0000 0.2000
13:13 12.7 10.1 84 250 3.6 7.5 1021.7 0.0000 0.2000
13:23 13.4 9.8 79 252 3.6 7.2 1021.6 0.0000 0.2000
13:33 13.8 9.8 77 257 3.3 6.7 1021.4 0.0000 0.2000
13:43 14.4 9.6 73 256 3.3 7.8 1021.4 0.0000 0.2000
13:53 14.6 9.2 70 255 3.6 7.8 1021.2 0.0000 0.2000
14:03 14.8 8.7 67 253 3.6 7.5 1021.1 0.0000 0.2000
14:14 14.9 8.8 67 251 4.2 8.1 1020.9 0.0000 0.2000
14:23 14.8 8.5 66 252 3.6 7.8 1020.8 0.0000 0.2000
14:33 14.9 8.2 64 256 3.6 7.5 1020.5 0.0000 0.2000
14:44 15 8.3 64 253 4.2 7.2 1020.4 0.0000 0.2000
14:54 14.9 8.2 64 245 3.6 7.2 1020.3 0.0000 0.2000
15:04 14.9 7.7 62 253 4.2 6.7 1020.3 0.0000 0.2000
15:13 14.8 7.4 61 263 3.1 7.2 1020.4 0.0000 0.2000
15:24 14.6 6.9 60 263 3.1 6.4 1020.3 0.0000 0.2000
15:34 14.5 7.1 61 257 3.1 7.2 1020.2 0.0000 0.2000
15:44 14.4 7 61 281 3.1 6.7 1020 0.0000 0.2000
15:54 14.1 6.7 61 270 2.8 6.7 1019.9 0.0000 0.2000
16:05 13.8 6.7 62 260 3.1 7.5 1019.9 0.0000 0.2000
16:14 13.7 6.6 62 274 2.5 8.1 1019.9 0.0000 0.2000
16:24 13.4 6.3 62 298 2.5 4.7 1019.9 0.0000 0.2000
16:35 13 6.1 63 281 1.9 3.6 1019.9 0.0000 0.2000
16:45 12.7 6.1 64 308 1.9 3.6 1019.8 0.0000 0.2000
16:55 12.4 6 65 289 1.9 4.4 1019.8 0.0000 0.2000
17:05 12.3 6.1 66 277 1.9 3.3 1019.7 0.0000 0.2000
17:15 12.1 6.2 67 276 1.9 4.2 1019.6 0.0000 0.2000
17:25 11.8 6.1 68 265 1.9 3.1 1019.5 0.0000 0.2000
17:35 11.5 6 69 280 1.7 5.6 1019.6 0.0000 0.2000
17:46 11.1 5.8 70 270 1.9 3.1 1019.7 0.0000 0.2000
17:55 10.8 5.8 71 281 1.7 3.1 1019.8 0.0000 0.2000
18:05 10.5 5.7 72 291 1.7 3.6 1019.8 0.0000 0.2000
18:15 10.3 5.5 72 304 1.9 4.2 1019.8 0.0000 0.2000
18:26 10.1 5.5 73 298 1.7 3.1 1019.9 0.0000 0.2000
18:36 9.9 5.3 73 340 1.9 4.4 1019.9 0.0000 0.2000
18:45 9.8 5.4 74 324 1.9 3.6 1019.9 0.0000 0.2000

DAY STATISTIC

2021-08-02
TEMPERATURE
AVERAGE
6.7
HIGH
15.0
14:44
LOW
1.8
01:37
PRESSURE
AVERAGE
1022.3
HIGH
1025.4
08:40
LOW
1019.5
17:25
DEWPOINT
AVERAGE
4.0
HIGH
10.1
13:13
LOW
0.2
01:37
HUMIDITY
AVERAGE
84
HIGH
94
10:11
LOW
60
15:24
WIND SPEED
AVERAGE
2.9
HIGH
5.0
12:42
WIND GUST
AVERAGE
5.4
HIGH
9.4
12:42
WIND DIRECTION
PREVAILING
SW
60.7%
N
0.9
NE
0.0
E
0.0
SE
0.0
S
0.0
SW
60.7
W
33.9
NW
4.5
PRECIPITATION
RAIN HOUR
0.1
RAIN DAY
0.2
TEMPERATURE (°C)
LOW
1.8
HIGH
15.0
AVERAGE
6.7
PRESSURE (hpa)
LOW
1019.5
HIGH
1025.4
AVERAGE
1022.3
DEVICE